sensor_id;sensor_type;location;lat;lon;timestamp;P1;durP1;ratioP1;P2;durP2;ratioP2
40807;SDS011;26523;52.504;13.498;2023-04-07T00:01:01;12.00;;;6.45;;
40807;SDS011;26523;52.504;13.498;2023-04-07T00:03:27;9.60;;;4.70;;
40807;SDS011;26523;52.504;13.498;2023-04-07T00:05:53;11.43;;;4.68;;
40807;SDS011;26523;52.504;13.498;2023-04-07T00:08:18;10.50;;;3.92;;
40807;SDS011;26523;52.504;13.498;2023-04-07T00:10:44;8.40;;;4.63;;
40807;SDS011;26523;52.504;13.498;2023-04-07T00:13:10;8.10;;;4.28;;
40807;SDS011;26523;52.504;13.498;2023-04-07T00:15:35;10.07;;;4.15;;
40807;SDS011;26523;52.504;13.498;2023-04-07T00:18:01;12.50;;;4.45;;
40807;SDS011;26523;52.504;13.498;2023-04-07T00:20:27;8.05;;;3.47;;
40807;SDS011;26523;52.504;13.498;2023-04-07T00:22:53;7.82;;;3.72;;
40807;SDS011;26523;52.504;13.498;2023-04-07T00:25:19;11.48;;;4.65;;
40807;SDS011;26523;52.504;13.498;2023-04-07T00:27:44;7.38;;;3.45;;
40807;SDS011;26523;52.504;13.498;2023-04-07T00:30:10;8.60;;;3.65;;
40807;SDS011;26523;52.504;13.498;2023-04-07T00:32:36;5.45;;;3.35;;
40807;SDS011;26523;52.504;13.498;2023-04-07T00:35:01;9.73;;;3.10;;
40807;SDS011;26523;52.504;13.498;2023-04-07T00:37:27;10.40;;;4.13;;
40807;SDS011;26523;52.504;13.498;2023-04-07T00:39:53;11.65;;;3.80;;
40807;SDS011;26523;52.504;13.498;2023-04-07T00:42:18;8.35;;;3.40;;
40807;SDS011;26523;52.504;13.498;2023-04-07T00:44:44;7.22;;;3.35;;
40807;SDS011;26523;52.504;13.498;2023-04-07T00:47:10;9.38;;;4.05;;
40807;SDS011;26523;52.504;13.498;2023-04-07T00:49:36;10.75;;;3.70;;
40807;SDS011;26523;52.504;13.498;2023-04-07T00:52:02;9.60;;;3.53;;
40807;SDS011;26523;52.504;13.498;2023-04-07T00:54:30;9.23;;;3.72;;
40807;SDS011;26523;52.504;13.498;2023-04-07T00:56:55;6.90;;;3.60;;
40807;SDS011;26523;52.504;13.498;2023-04-07T00:59:22;8.02;;;3.20;;
40807;SDS011;26523;52.504;13.498;2023-04-07T01:01:57;9.98;;;3.42;;
40807;SDS011;26523;52.504;13.498;2023-04-07T01:04:38;7.50;;;3.08;;
40807;SDS011;26523;52.504;13.498;2023-04-07T01:07:12;8.32;;;3.55;;
40807;SDS011;26523;52.504;13.498;2023-04-07T01:09:45;6.95;;;3.28;;
40807;SDS011;26523;52.504;13.498;2023-04-07T01:12:23;8.95;;;3.72;;
40807;SDS011;26523;52.504;13.498;2023-04-07T01:14:53;8.85;;;3.58;;
40807;SDS011;26523;52.504;13.498;2023-04-07T01:17:24;9.07;;;3.85;;
40807;SDS011;26523;52.504;13.498;2023-04-07T01:20:01;13.90;;;4.40;;
40807;SDS011;26523;52.504;13.498;2023-04-07T01:22:32;14.02;;;3.85;;
40807;SDS011;26523;52.504;13.498;2023-04-07T01:31:11;12.18;;;3.95;;
40807;SDS011;26523;52.504;13.498;2023-04-07T01:33:47;6.95;;;3.63;;
40807;SDS011;26523;52.504;13.498;2023-04-07T01:36:15;10.88;;;4.03;;
40807;SDS011;26523;52.504;13.498;2023-04-07T01:38:42;8.68;;;3.80;;
40807;SDS011;26523;52.504;13.498;2023-04-07T01:41:09;8.75;;;4.00;;
40807;SDS011;26523;52.504;13.498;2023-04-07T01:43:38;9.75;;;4.03;;
40807;SDS011;26523;52.504;13.498;2023-04-07T01:46:06;7.82;;;2.90;;
40807;SDS011;26523;52.504;13.498;2023-04-07T01:48:31;14.90;;;4.05;;
40807;SDS011;26523;52.504;13.498;2023-04-07T01:51:00;11.32;;;3.50;;
40807;SDS011;26523;52.504;13.498;2023-04-07T01:53:27;6.55;;;3.17;;
40807;SDS011;26523;52.504;13.498;2023-04-07T01:55:53;6.57;;;4.50;;
40807;SDS011;26523;52.504;13.498;2023-04-07T01:58:19;8.38;;;3.58;;
40807;SDS011;26523;52.504;13.498;2023-04-07T02:00:44;9.90;;;4.68;;
40807;SDS011;26523;52.504;13.498;2023-04-07T02:03:13;5.80;;;3.08;;
40807;SDS011;26523;52.504;13.498;2023-04-07T02:05:47;7.50;;;3.20;;
40807;SDS011;26523;52.504;13.498;2023-04-07T02:08:17;12.15;;;3.95;;
40807;SDS011;26523;52.504;13.498;2023-04-07T02:10:46;8.48;;;3.58;;
40807;SDS011;26523;52.504;13.498;2023-04-07T02:13:14;11.95;;;4.00;;
40807;SDS011;26523;52.504;13.498;2023-04-07T02:15:42;9.32;;;4.13;;
40807;SDS011;26523;52.504;13.498;2023-04-07T02:18:12;10.55;;;4.55;;
40807;SDS011;26523;52.504;13.498;2023-04-07T02:20:39;10.55;;;4.40;;
40807;SDS011;26523;52.504;13.498;2023-04-07T02:23:08;21.33;;;4.43;;
40807;SDS011;26523;52.504;13.498;2023-04-07T02:25:34;11.55;;;3.58;;
40807;SDS011;26523;52.504;13.498;2023-04-07T02:28:02;10.18;;;4.03;;
40807;SDS011;26523;52.504;13.498;2023-04-07T02:30:28;13.35;;;4.25;;
40807;SDS011;26523;52.504;13.498;2023-04-07T02:32:53;8.00;;;3.78;;
40807;SDS011;26523;52.504;13.498;2023-04-07T02:35:19;9.15;;;3.55;;
40807;SDS011;26523;52.504;13.498;2023-04-07T02:37:48;13.63;;;4.07;;
40807;SDS011;26523;52.504;13.498;2023-04-07T02:40:14;7.53;;;3.72;;
40807;SDS011;26523;52.504;13.498;2023-04-07T02:42:40;10.65;;;3.58;;
40807;SDS011;26523;52.504;13.498;2023-04-07T02:45:07;12.65;;;4.40;;
40807;SDS011;26523;52.504;13.498;2023-04-07T02:47:34;10.02;;;3.30;;
40807;SDS011;26523;52.504;13.498;2023-04-07T02:50:00;11.70;;;4.28;;
40807;SDS011;26523;52.504;13.498;2023-04-07T02:52:26;11.43;;;3.67;;
40807;SDS011;26523;52.504;13.498;2023-04-07T02:54:52;7.38;;;3.40;;
40807;SDS011;26523;52.504;13.498;2023-04-07T02:57:18;13.50;;;4.32;;
40807;SDS011;26523;52.504;13.498;2023-04-07T02:59:43;8.73;;;3.95;;
40807;SDS011;26523;52.504;13.498;2023-04-07T03:02:09;9.57;;;3.50;;
40807;SDS011;26523;52.504;13.498;2023-04-07T03:04:35;8.57;;;4.13;;
40807;SDS011;26523;52.504;13.498;2023-04-07T03:07:01;7.60;;;3.58;;
40807;SDS011;26523;52.504;13.498;2023-04-07T03:09:26;11.95;;;4.18;;
40807;SDS011;26523;52.504;13.498;2023-04-07T03:11:52;7.40;;;3.55;;
40807;SDS011;26523;52.504;13.498;2023-04-07T03:14:18;7.13;;;2.88;;
40807;SDS011;26523;52.504;13.498;2023-04-07T03:16:44;5.65;;;3.33;;
40807;SDS011;26523;52.504;13.498;2023-04-07T03:19:10;10.43;;;4.15;;
40807;SDS011;26523;52.504;13.498;2023-04-07T03:21:38;8.50;;;3.58;;
40807;SDS011;26523;52.504;13.498;2023-04-07T03:24:05;11.80;;;4.35;;
40807;SDS011;26523;52.504;13.498;2023-04-07T03:26:31;8.82;;;3.25;;
40807;SDS011;26523;52.504;13.498;2023-04-07T03:28:57;7.80;;;3.60;;
40807;SDS011;26523;52.504;13.498;2023-04-07T03:31:22;7.97;;;3.60;;
40807;SDS011;26523;52.504;13.498;2023-04-07T03:33:48;7.65;;;3.22;;
40807;SDS011;26523;52.504;13.498;2023-04-07T03:36:14;7.68;;;3.28;;
40807;SDS011;26523;52.504;13.498;2023-04-07T03:38:41;10.88;;;3.85;;
40807;SDS011;26523;52.504;13.498;2023-04-07T03:41:07;11.70;;;4.35;;
40807;SDS011;26523;52.504;13.498;2023-04-07T03:43:33;9.98;;;3.72;;
40807;SDS011;26523;52.504;13.498;2023-04-07T03:45:59;9.55;;;3.72;;
40807;SDS011;26523;52.504;13.498;2023-04-07T03:48:24;14.07;;;4.28;;
40807;SDS011;26523;52.504;13.498;2023-04-07T03:50:50;9.52;;;4.10;;
40807;SDS011;26523;52.504;13.498;2023-04-07T03:53:16;11.77;;;3.88;;
40807;SDS011;26523;52.504;13.498;2023-04-07T03:55:43;11.23;;;4.57;;
40807;SDS011;26523;52.504;13.498;2023-04-07T03:58:09;7.22;;;3.95;;
40807;SDS011;26523;52.504;13.498;2023-04-07T04:00:35;8.90;;;4.35;;
40807;SDS011;26523;52.504;13.498;2023-04-07T04:03:01;9.00;;;3.72;;
40807;SDS011;26523;52.504;13.498;2023-04-07T04:05:26;8.88;;;3.55;;
40807;SDS011;26523;52.504;13.498;2023-04-07T04:07:52;7.50;;;3.60;;
40807;SDS011;26523;52.504;13.498;2023-04-07T04:10:18;8.30;;;3.30;;
40807;SDS011;26523;52.504;13.498;2023-04-07T04:12:45;6.93;;;3.28;;
40807;SDS011;26523;52.504;13.498;2023-04-07T04:15:12;12.20;;;4.05;;
40807;SDS011;26523;52.504;13.498;2023-04-07T04:17:38;10.05;;;4.03;;
40807;SDS011;26523;52.504;13.498;2023-04-07T04:20:04;7.93;;;3.72;;
40807;SDS011;26523;52.504;13.498;2023-04-07T04:22:30;9.57;;;2.67;;
40807;SDS011;26523;52.504;13.498;2023-04-07T04:24:56;12.90;;;4.45;;
40807;SDS011;26523;52.504;13.498;2023-04-07T04:27:21;8.00;;;3.65;;
40807;SDS011;26523;52.504;13.498;2023-04-07T04:29:47;6.93;;;3.35;;
40807;SDS011;26523;52.504;13.498;2023-04-07T04:32:13;8.23;;;4.03;;
40807;SDS011;26523;52.504;13.498;2023-04-07T04:34:39;11.75;;;5.03;;
40807;SDS011;26523;52.504;13.498;2023-04-07T04:37:06;12.45;;;4.95;;
40807;SDS011;26523;52.504;13.498;2023-04-07T04:39:32;7.35;;;3.80;;
40807;SDS011;26523;52.504;13.498;2023-04-07T04:41:58;9.27;;;3.70;;
40807;SDS011;26523;52.504;13.498;2023-04-07T04:44:23;8.48;;;3.63;;
40807;SDS011;26523;52.504;13.498;2023-04-07T04:46:49;10.70;;;3.88;;
40807;SDS011;26523;52.504;13.498;2023-04-07T04:49:16;16.95;;;4.13;;
40807;SDS011;26523;52.504;13.498;2023-04-07T04:51:42;13.10;;;4.30;;
40807;SDS011;26523;52.504;13.498;2023-04-07T04:54:08;11.48;;;4.57;;
40807;SDS011;26523;52.504;13.498;2023-04-07T04:56:34;11.48;;;4.28;;
40807;SDS011;26523;52.504;13.498;2023-04-07T04:59:01;11.18;;;4.28;;
40807;SDS011;26523;52.504;13.498;2023-04-07T05:01:27;7.97;;;4.20;;
40807;SDS011;26523;52.504;13.498;2023-04-07T05:03:53;8.43;;;4.55;;
40807;SDS011;26523;52.504;13.498;2023-04-07T05:06:18;11.07;;;3.78;;
40807;SDS011;26523;52.504;13.498;2023-04-07T05:08:45;13.35;;;4.47;;
40807;SDS011;26523;52.504;13.498;2023-04-07T05:11:10;9.98;;;3.95;;
40807;SDS011;26523;52.504;13.498;2023-04-07T05:13:36;12.30;;;4.40;;
40807;SDS011;26523;52.504;13.498;2023-04-07T05:16:02;10.60;;;3.92;;
40807;SDS011;26523;52.504;13.498;2023-04-07T05:18:28;9.82;;;3.75;;
40807;SDS011;26523;52.504;13.498;2023-04-07T05:20:53;11.10;;;4.20;;
40807;SDS011;26523;52.504;13.498;2023-04-07T05:23:19;11.05;;;3.83;;
40807;SDS011;26523;52.504;13.498;2023-04-07T05:25:45;8.05;;;3.95;;
40807;SDS011;26523;52.504;13.498;2023-04-07T05:28:10;15.13;;;4.75;;
40807;SDS011;26523;52.504;13.498;2023-04-07T05:30:36;10.50;;;4.55;;
40807;SDS011;26523;52.504;13.498;2023-04-07T05:33:02;13.50;;;4.43;;
40807;SDS011;26523;52.504;13.498;2023-04-07T05:35:27;10.13;;;4.65;;
40807;SDS011;26523;52.504;13.498;2023-04-07T05:37:53;12.00;;;3.90;;
40807;SDS011;26523;52.504;13.498;2023-04-07T05:40:18;10.15;;;4.30;;
40807;SDS011;26523;52.504;13.498;2023-04-07T05:42:44;8.27;;;3.65;;
40807;SDS011;26523;52.504;13.498;2023-04-07T05:45:10;8.32;;;4.40;;
40807;SDS011;26523;52.504;13.498;2023-04-07T05:47:36;10.10;;;4.20;;
40807;SDS011;26523;52.504;13.498;2023-04-07T05:50:01;18.92;;;4.10;;
40807;SDS011;26523;52.504;13.498;2023-04-07T05:52:27;8.93;;;4.20;;
40807;SDS011;26523;52.504;13.498;2023-04-07T05:54:53;8.77;;;4.50;;
40807;SDS011;26523;52.504;13.498;2023-04-07T05:57:19;12.32;;;5.68;;
40807;SDS011;26523;52.504;13.498;2023-04-07T05:59:44;11.20;;;4.50;;
40807;SDS011;26523;52.504;13.498;2023-04-07T06:02:11;13.23;;;5.15;;
40807;SDS011;26523;52.504;13.498;2023-04-07T06:04:38;9.23;;;3.90;;
40807;SDS011;26523;52.504;13.498;2023-04-07T06:07:04;11.63;;;4.97;;
40807;SDS011;26523;52.504;13.498;2023-04-07T06:09:29;12.73;;;5.18;;
40807;SDS011;26523;52.504;13.498;2023-04-07T06:11:55;9.82;;;4.50;;
40807;SDS011;26523;52.504;13.498;2023-04-07T06:14:21;16.67;;;4.78;;
40807;SDS011;26523;52.504;13.498;2023-04-07T06:16:47;9.93;;;4.43;;
40807;SDS011;26523;52.504;13.498;2023-04-07T06:19:13;13.30;;;4.80;;
40807;SDS011;26523;52.504;13.498;2023-04-07T06:21:38;10.23;;;4.95;;
40807;SDS011;26523;52.504;13.498;2023-04-07T06:24:04;12.70;;;4.93;;
40807;SDS011;26523;52.504;13.498;2023-04-07T06:26:31;9.52;;;4.55;;
40807;SDS011;26523;52.504;13.498;2023-04-07T06:28:57;12.75;;;4.90;;
40807;SDS011;26523;52.504;13.498;2023-04-07T06:31:23;12.57;;;5.32;;
40807;SDS011;26523;52.504;13.498;2023-04-07T06:33:49;10.73;;;5.22;;
40807;SDS011;26523;52.504;13.498;2023-04-07T06:36:18;11.52;;;5.32;;
40807;SDS011;26523;52.504;13.498;2023-04-07T06:38:44;10.50;;;4.38;;
40807;SDS011;26523;52.504;13.498;2023-04-07T06:41:10;9.32;;;4.07;;
40807;SDS011;26523;52.504;13.498;2023-04-07T06:43:40;9.98;;;4.80;;
40807;SDS011;26523;52.504;13.498;2023-04-07T06:46:15;9.30;;;4.82;;
40807;SDS011;26523;52.504;13.498;2023-04-07T06:48:42;12.02;;;4.47;;
40807;SDS011;26523;52.504;13.498;2023-04-07T06:51:07;9.93;;;4.85;;
40807;SDS011;26523;52.504;13.498;2023-04-07T06:53:33;12.05;;;5.40;;
40807;SDS011;26523;52.504;13.498;2023-04-07T06:56:03;16.48;;;5.88;;
40807;SDS011;26523;52.504;13.498;2023-04-07T06:58:30;17.63;;;5.78;;
40807;SDS011;26523;52.504;13.498;2023-04-07T07:00:56;11.75;;;4.80;;
40807;SDS011;26523;52.504;13.498;2023-04-07T07:03:21;15.63;;;4.93;;
40807;SDS011;26523;52.504;13.498;2023-04-07T07:05:47;13.35;;;5.20;;
40807;SDS011;26523;52.504;13.498;2023-04-07T07:08:13;12.55;;;4.55;;
40807;SDS011;26523;52.504;13.498;2023-04-07T07:10:39;10.15;;;4.45;;
40807;SDS011;26523;52.504;13.498;2023-04-07T07:13:04;10.80;;;4.78;;
40807;SDS011;26523;52.504;13.498;2023-04-07T07:15:30;10.63;;;4.47;;
40807;SDS011;26523;52.504;13.498;2023-04-07T07:17:55;17.15;;;5.03;;
40807;SDS011;26523;52.504;13.498;2023-04-07T07:20:21;11.80;;;4.95;;
40807;SDS011;26523;52.504;13.498;2023-04-07T07:22:47;11.82;;;4.78;;
40807;SDS011;26523;52.504;13.498;2023-04-07T07:25:14;11.95;;;4.65;;
40807;SDS011;26523;52.504;13.498;2023-04-07T07:27:40;7.00;;;4.07;;
40807;SDS011;26523;52.504;13.498;2023-04-07T07:30:06;10.65;;;4.75;;
40807;SDS011;26523;52.504;13.498;2023-04-07T07:32:32;9.80;;;4.32;;
40807;SDS011;26523;52.504;13.498;2023-04-07T07:34:58;10.27;;;4.32;;
40807;SDS011;26523;52.504;13.498;2023-04-07T07:37:23;15.05;;;4.72;;
40807;SDS011;26523;52.504;13.498;2023-04-07T07:39:49;12.27;;;4.63;;
40807;SDS011;26523;52.504;13.498;2023-04-07T07:42:16;9.40;;;4.70;;
40807;SDS011;26523;52.504;13.498;2023-04-07T07:44:43;8.68;;;4.13;;
40807;SDS011;26523;52.504;13.498;2023-04-07T07:47:09;13.10;;;4.57;;
40807;SDS011;26523;52.504;13.498;2023-04-07T07:49:36;12.23;;;4.65;;
40807;SDS011;26523;52.504;13.498;2023-04-07T07:52:02;10.80;;;3.92;;
40807;SDS011;26523;52.504;13.498;2023-04-07T07:54:28;7.53;;;3.90;;
40807;SDS011;26523;52.504;13.498;2023-04-07T07:56:53;8.60;;;4.47;;
40807;SDS011;26523;52.504;13.498;2023-04-07T07:59:19;9.52;;;4.10;;
40807;SDS011;26523;52.504;13.498;2023-04-07T08:01:45;12.18;;;3.75;;
40807;SDS011;26523;52.504;13.498;2023-04-07T08:04:11;9.85;;;4.38;;
40807;SDS011;26523;52.504;13.498;2023-04-07T08:06:36;8.25;;;3.70;;
40807;SDS011;26523;52.504;13.498;2023-04-07T08:09:02;9.52;;;4.10;;
40807;SDS011;26523;52.504;13.498;2023-04-07T08:11:28;8.95;;;3.55;;
40807;SDS011;26523;52.504;13.498;2023-04-07T08:13:54;8.93;;;3.67;;
40807;SDS011;26523;52.504;13.498;2023-04-07T08:16:19;8.93;;;3.60;;
40807;SDS011;26523;52.504;13.498;2023-04-07T08:18:46;11.68;;;4.32;;
40807;SDS011;26523;52.504;13.498;2023-04-07T08:21:12;8.88;;;3.40;;
40807;SDS011;26523;52.504;13.498;2023-04-07T08:23:38;9.73;;;3.40;;
40807;SDS011;26523;52.504;13.498;2023-04-07T08:26:03;11.55;;;4.50;;
40807;SDS011;26523;52.504;13.498;2023-04-07T08:28:29;8.00;;;3.85;;
40807;SDS011;26523;52.504;13.498;2023-04-07T08:30:55;9.35;;;3.60;;
40807;SDS011;26523;52.504;13.498;2023-04-07T08:33:20;8.63;;;3.42;;
40807;SDS011;26523;52.504;13.498;2023-04-07T08:35:46;8.68;;;3.47;;
40807;SDS011;26523;52.504;13.498;2023-04-07T08:38:12;8.57;;;3.47;;
40807;SDS011;26523;52.504;13.498;2023-04-07T08:40:37;8.23;;;3.63;;
40807;SDS011;26523;52.504;13.498;2023-04-07T08:43:06;8.43;;;3.25;;
40807;SDS011;26523;52.504;13.498;2023-04-07T08:45:34;7.55;;;3.50;;
40807;SDS011;26523;52.504;13.498;2023-04-07T08:48:03;7.25;;;3.55;;
40807;SDS011;26523;52.504;13.498;2023-04-07T08:50:42;9.55;;;3.45;;
40807;SDS011;26523;52.504;13.498;2023-04-07T08:53:09;8.65;;;3.30;;
40807;SDS011;26523;52.504;13.498;2023-04-07T08:55:39;8.82;;;3.25;;
40807;SDS011;26523;52.504;13.498;2023-04-07T08:58:05;9.52;;;3.30;;
40807;SDS011;26523;52.504;13.498;2023-04-07T09:00:37;8.05;;;3.10;;
40807;SDS011;26523;52.504;13.498;2023-04-07T09:03:09;6.75;;;2.53;;
40807;SDS011;26523;52.504;13.498;2023-04-07T09:05:35;7.20;;;3.13;;
40807;SDS011;26523;52.504;13.498;2023-04-07T09:08:02;8.35;;;3.58;;
40807;SDS011;26523;52.504;13.498;2023-04-07T09:10:28;11.40;;;3.28;;
40807;SDS011;26523;52.504;13.498;2023-04-07T09:12:56;8.35;;;2.97;;
40807;SDS011;26523;52.504;13.498;2023-04-07T09:15:22;6.30;;;2.80;;
40807;SDS011;26523;52.504;13.498;2023-04-07T09:17:49;7.70;;;2.67;;
40807;SDS011;26523;52.504;13.498;2023-04-07T09:20:15;11.68;;;3.05;;
40807;SDS011;26523;52.504;13.498;2023-04-07T09:22:41;8.63;;;2.88;;
40807;SDS011;26523;52.504;13.498;2023-04-07T09:27:59;7.07;;;3.33;;
40807;SDS011;26523;52.504;13.498;2023-04-07T09:30:26;7.80;;;2.50;;
40807;SDS011;26523;52.504;13.498;2023-04-07T09:32:53;8.45;;;2.92;;
40807;SDS011;26523;52.504;13.498;2023-04-07T09:35:19;6.97;;;2.85;;
40807;SDS011;26523;52.504;13.498;2023-04-07T09:40:31;9.48;;;3.10;;
40807;SDS011;26523;52.504;13.498;2023-04-07T09:42:58;14.15;;;2.80;;
40807;SDS011;26523;52.504;13.498;2023-04-07T09:45:26;8.10;;;2.97;;
40807;SDS011;26523;52.504;13.498;2023-04-07T09:47:53;10.98;;;2.35;;
40807;SDS011;26523;52.504;13.498;2023-04-07T09:53:01;7.45;;;3.05;;
40807;SDS011;26523;52.504;13.498;2023-04-07T09:55:28;6.90;;;2.88;;
40807;SDS011;26523;52.504;13.498;2023-04-07T09:57:55;7.80;;;2.83;;
40807;SDS011;26523;52.504;13.498;2023-04-07T10:00:21;10.60;;;2.85;;
40807;SDS011;26523;52.504;13.498;2023-04-07T10:02:47;5.25;;;2.75;;
40807;SDS011;26523;52.504;13.498;2023-04-07T10:05:15;6.30;;;2.90;;
40807;SDS011;26523;52.504;13.498;2023-04-07T10:07:41;9.32;;;3.63;;
40807;SDS011;26523;52.504;13.498;2023-04-07T10:10:07;6.00;;;2.80;;
40807;SDS011;26523;52.504;13.498;2023-04-07T10:12:34;8.15;;;3.28;;
40807;SDS011;26523;52.504;13.498;2023-04-07T10:15:01;6.68;;;2.65;;
40807;SDS011;26523;52.504;13.498;2023-04-07T10:17:28;6.80;;;2.22;;
40807;SDS011;26523;52.504;13.498;2023-04-07T10:19:57;6.63;;;2.88;;
40807;SDS011;26523;52.504;13.498;2023-04-07T10:22:23;9.77;;;3.10;;
40807;SDS011;26523;52.504;13.498;2023-04-07T10:24:58;7.90;;;2.90;;
40807;SDS011;26523;52.504;13.498;2023-04-07T10:27:30;7.30;;;2.67;;
40807;SDS011;26523;52.504;13.498;2023-04-07T10:29:59;6.80;;;3.13;;
40807;SDS011;26523;52.504;13.498;2023-04-07T10:32:28;6.22;;;2.40;;
40807;SDS011;26523;52.504;13.498;2023-04-07T10:34:54;7.57;;;2.40;;
40807;SDS011;26523;52.504;13.498;2023-04-07T10:37:22;10.25;;;3.88;;
40807;SDS011;26523;52.504;13.498;2023-04-07T10:42:43;4.50;;;2.45;;
40807;SDS011;26523;52.504;13.498;2023-04-07T10:45:11;10.20;;;3.22;;
40807;SDS011;26523;52.504;13.498;2023-04-07T10:48:08;9.20;;;3.17;;
40807;SDS011;26523;52.504;13.498;2023-04-07T10:50:23;10.93;;;2.78;;
40807;SDS011;26523;52.504;13.498;2023-04-07T10:53:03;6.93;;;3.17;;
40807;SDS011;26523;52.504;13.498;2023-04-07T10:55:39;8.45;;;3.60;;
40807;SDS011;26523;52.504;13.498;2023-04-07T10:58:19;7.07;;;2.65;;
40807;SDS011;26523;52.504;13.498;2023-04-07T11:03:27;6.63;;;2.42;;
40807;SDS011;26523;52.504;13.498;2023-04-07T11:06:04;6.82;;;2.60;;
40807;SDS011;26523;52.504;13.498;2023-04-07T11:08:40;6.47;;;3.00;;
40807;SDS011;26523;52.504;13.498;2023-04-07T11:11:08;6.90;;;2.90;;
40807;SDS011;26523;52.504;13.498;2023-04-07T11:13:43;6.85;;;2.88;;
40807;SDS011;26523;52.504;13.498;2023-04-07T11:16:13;6.05;;;3.40;;
40807;SDS011;26523;52.504;13.498;2023-04-07T11:18:40;7.00;;;2.97;;
40807;SDS011;26523;52.504;13.498;2023-04-07T11:21:07;8.82;;;3.65;;
40807;SDS011;26523;52.504;13.498;2023-04-07T11:23:42;7.60;;;3.67;;
40807;SDS011;26523;52.504;13.498;2023-04-07T11:26:10;8.15;;;3.42;;
40807;SDS011;26523;52.504;13.498;2023-04-07T11:28:53;21.75;;;6.43;;
40807;SDS011;26523;52.504;13.498;2023-04-07T11:34:01;14.80;;;6.35;;
40807;SDS011;26523;52.504;13.498;2023-04-07T11:38:55;12.60;;;6.25;;
40807;SDS011;26523;52.504;13.498;2023-04-07T11:41:21;15.48;;;7.70;;
40807;SDS011;26523;52.504;13.498;2023-04-07T11:44:11;17.90;;;7.97;;
40807;SDS011;26523;52.504;13.498;2023-04-07T11:46:50;19.13;;;8.23;;
40807;SDS011;26523;52.504;13.498;2023-04-07T11:49:20;19.03;;;8.53;;
40807;SDS011;26523;52.504;13.498;2023-04-07T11:51:47;22.58;;;8.57;;
40807;SDS011;26523;52.504;13.498;2023-04-07T11:54:21;14.53;;;7.27;;
40807;SDS011;26523;52.504;13.498;2023-04-07T11:56:47;14.93;;;7.18;;
40807;SDS011;26523;52.504;13.498;2023-04-07T12:01:48;11.55;;;5.95;;
40807;SDS011;26523;52.504;13.498;2023-04-07T12:04:15;10.30;;;4.72;;
40807;SDS011;26523;52.504;13.498;2023-04-07T12:06:41;11.30;;;4.93;;
40807;SDS011;26523;52.504;13.498;2023-04-07T12:09:23;8.65;;;4.25;;
40807;SDS011;26523;52.504;13.498;2023-04-07T12:11:51;11.30;;;4.47;;
40807;SDS011;26523;52.504;13.498;2023-04-07T12:14:16;13.88;;;5.50;;
40807;SDS011;26523;52.504;13.498;2023-04-07T12:16:42;11.10;;;4.75;;
40807;SDS011;26523;52.504;13.498;2023-04-07T12:19:09;11.82;;;4.18;;
40807;SDS011;26523;52.504;13.498;2023-04-07T12:21:34;14.65;;;4.05;;
40807;SDS011;26523;52.504;13.498;2023-04-07T12:24:00;14.23;;;5.45;;
40807;SDS011;26523;52.504;13.498;2023-04-07T12:26:26;9.13;;;4.80;;
40807;SDS011;26523;52.504;13.498;2023-04-07T12:28:52;19.33;;;6.05;;
40807;SDS011;26523;52.504;13.498;2023-04-07T12:31:18;10.23;;;5.15;;
40807;SDS011;26523;52.504;13.498;2023-04-07T12:33:44;14.23;;;6.88;;
40807;SDS011;26523;52.504;13.498;2023-04-07T12:36:10;18.27;;;7.10;;
40807;SDS011;26523;52.504;13.498;2023-04-07T12:38:36;15.18;;;6.40;;
40807;SDS011;26523;52.504;13.498;2023-04-07T12:41:02;16.55;;;6.75;;
40807;SDS011;26523;52.504;13.498;2023-04-07T12:43:28;18.00;;;7.72;;
40807;SDS011;26523;52.504;13.498;2023-04-07T12:45:54;17.20;;;7.03;;
40807;SDS011;26523;52.504;13.498;2023-04-07T12:48:21;15.30;;;6.35;;
40807;SDS011;26523;52.504;13.498;2023-04-07T12:50:47;14.20;;;6.07;;
40807;SDS011;26523;52.504;13.498;2023-04-07T12:53:13;12.98;;;5.40;;
40807;SDS011;26523;52.504;13.498;2023-04-07T12:55:40;12.85;;;5.53;;
40807;SDS011;26523;52.504;13.498;2023-04-07T12:58:06;11.23;;;3.63;;
40807;SDS011;26523;52.504;13.498;2023-04-07T13:00:33;9.95;;;3.20;;
40807;SDS011;26523;52.504;13.498;2023-04-07T13:02:59;9.38;;;3.22;;
40807;SDS011;26523;52.504;13.498;2023-04-07T13:05:25;6.97;;;3.03;;
40807;SDS011;26523;52.504;13.498;2023-04-07T13:07:51;7.72;;;3.20;;
40807;SDS011;26523;52.504;13.498;2023-04-07T13:10:17;7.72;;;2.58;;
40807;SDS011;26523;52.504;13.498;2023-04-07T13:12:42;9.07;;;3.25;;
40807;SDS011;26523;52.504;13.498;2023-04-07T13:15:08;9.02;;;3.75;;
40807;SDS011;26523;52.504;13.498;2023-04-07T13:17:34;7.63;;;2.90;;
40807;SDS011;26523;52.504;13.498;2023-04-07T13:20:01;7.13;;;2.83;;
40807;SDS011;26523;52.504;13.498;2023-04-07T13:22:28;6.20;;;2.83;;
40807;SDS011;26523;52.504;13.498;2023-04-07T13:24:53;6.68;;;2.90;;
40807;SDS011;26523;52.504;13.498;2023-04-07T13:27:19;7.60;;;3.00;;
40807;SDS011;26523;52.504;13.498;2023-04-07T13:29:45;9.50;;;3.22;;
40807;SDS011;26523;52.504;13.498;2023-04-07T13:32:11;7.97;;;3.33;;
40807;SDS011;26523;52.504;13.498;2023-04-07T13:34:37;5.47;;;2.40;;
40807;SDS011;26523;52.504;13.498;2023-04-07T13:37:03;7.38;;;2.22;;
40807;SDS011;26523;52.504;13.498;2023-04-07T13:39:30;5.75;;;2.58;;
40807;SDS011;26523;52.504;13.498;2023-04-07T13:41:56;6.25;;;2.95;;
40807;SDS011;26523;52.504;13.498;2023-04-07T13:44:25;7.90;;;2.78;;
40807;SDS011;26523;52.504;13.498;2023-04-07T13:46:52;7.88;;;3.25;;
40807;SDS011;26523;52.504;13.498;2023-04-07T13:49:18;5.80;;;2.83;;
40807;SDS011;26523;52.504;13.498;2023-04-07T13:51:44;8.93;;;2.65;;
40807;SDS011;26523;52.504;13.498;2023-04-07T13:54:10;6.78;;;3.15;;
40807;SDS011;26523;52.504;13.498;2023-04-07T13:56:36;7.78;;;2.83;;
40807;SDS011;26523;52.504;13.498;2023-04-07T13:59:04;5.07;;;2.58;;
40807;SDS011;26523;52.504;13.498;2023-04-07T14:01:31;6.30;;;2.25;;
40807;SDS011;26523;52.504;13.498;2023-04-07T14:03:58;6.35;;;2.90;;
40807;SDS011;26523;52.504;13.498;2023-04-07T14:06:24;7.03;;;3.00;;
40807;SDS011;26523;52.504;13.498;2023-04-07T14:08:50;6.25;;;2.70;;
40807;SDS011;26523;52.504;13.498;2023-04-07T14:11:17;6.00;;;2.30;;
40807;SDS011;26523;52.504;13.498;2023-04-07T14:13:43;6.75;;;3.08;;
40807;SDS011;26523;52.504;13.498;2023-04-07T14:16:09;5.65;;;2.45;;
40807;SDS011;26523;52.504;13.498;2023-04-07T14:18:35;6.55;;;3.00;;
40807;SDS011;26523;52.504;13.498;2023-04-07T14:21:01;11.05;;;3.20;;
40807;SDS011;26523;52.504;13.498;2023-04-07T14:23:27;6.10;;;2.53;;
40807;SDS011;26523;52.504;13.498;2023-04-07T14:25:53;7.30;;;2.90;;
40807;SDS011;26523;52.504;13.498;2023-04-07T14:28:19;6.80;;;2.90;;
40807;SDS011;26523;52.504;13.498;2023-04-07T14:30:45;5.32;;;2.40;;
40807;SDS011;26523;52.504;13.498;2023-04-07T14:33:11;10.98;;;3.50;;
40807;SDS011;26523;52.504;13.498;2023-04-07T14:35:37;6.45;;;2.83;;
40807;SDS011;26523;52.504;13.498;2023-04-07T14:38:03;5.10;;;2.40;;
40807;SDS011;26523;52.504;13.498;2023-04-07T14:40:29;5.32;;;2.38;;
40807;SDS011;26523;52.504;13.498;2023-04-07T14:42:55;7.35;;;2.83;;
40807;SDS011;26523;52.504;13.498;2023-04-07T14:45:23;4.22;;;2.08;;
40807;SDS011;26523;52.504;13.498;2023-04-07T14:47:49;5.32;;;2.40;;
40807;SDS011;26523;52.504;13.498;2023-04-07T14:50:15;5.95;;;2.28;;
40807;SDS011;26523;52.504;13.498;2023-04-07T14:52:41;5.10;;;2.55;;
40807;SDS011;26523;52.504;13.498;2023-04-07T14:55:07;4.65;;;2.20;;